Hamilton, New York
Current Conditions -  °F | °C
As of 8:53 PM on Wednesday 22 Oct 2014 (Local Time) from KRME Reporting Station
Overcast Overcast  
Wind Chill:   Ceiling: 2200
Heat Index:   Visibility: 10mi
Dew Point:   Wind: 7mph
Humidity: 80%   Direction: 320°NW
Pressure: 30.09"   Gusts: NA
Location:  42.83°N, 75.54°W
Report Text: KRME 230053Z 32006KT 10SM BKN022 BKN060 OVC080 09/06 A3009 RMK AO2 SLP189 T00890056
Loading
Personal Weather Stations






























Interactive Weather Map
Tropical Storm Tracking
New forecast layout! Learn more

10-Day Weather Forecast

Advertisements
Track Severe Weather on mobile